createdAt,value
2023-08-15T00:01:45.835Z,18.54
2023-08-15T00:04:12.625Z,18.58
2023-08-15T00:06:39.429Z,18.60
2023-08-15T00:09:06.436Z,18.75
2023-08-15T00:11:33.299Z,18.66
2023-08-15T00:14:00.066Z,18.62
2023-08-15T00:16:27.054Z,18.63
2023-08-15T00:18:53.848Z,18.53
2023-08-15T00:21:20.729Z,18.35
2023-08-15T00:23:47.755Z,18.15
2023-08-15T00:26:14.971Z,18.14
2023-08-15T00:28:42.149Z,18.07
2023-08-15T00:31:09.000Z,18.22
2023-08-15T00:33:35.789Z,18.34
2023-08-15T00:36:04.887Z,18.12
2023-08-15T00:38:31.670Z,18.25
2023-08-15T00:40:58.405Z,18.11
2023-08-15T00:43:25.337Z,18.09
2023-08-15T00:45:52.190Z,18.04
2023-08-15T00:48:19.543Z,18.21
2023-08-15T00:50:49.187Z,18.12
2023-08-15T00:53:16.031Z,18.09
2023-08-15T00:55:43.042Z,18.02
2023-08-15T00:58:09.891Z,17.92
2023-08-15T01:00:36.692Z,17.82
2023-08-15T01:03:04.733Z,17.88
2023-08-15T01:05:31.698Z,17.83
2023-08-15T01:07:58.459Z,17.81
2023-08-15T01:10:25.182Z,17.84
2023-08-15T01:13:02.893Z,17.71
2023-08-15T01:15:31.622Z,17.87
2023-08-15T01:18:11.488Z,17.63
2023-08-15T01:20:39.091Z,17.50
2023-08-15T01:23:08.800Z,17.51
2023-08-15T01:25:43.890Z,17.60
2023-08-15T01:28:14.654Z,17.51
2023-08-15T01:31:20.634Z,17.56
2023-08-15T01:34:01.449Z,17.45
2023-08-15T01:36:33.621Z,17.45
2023-08-15T01:39:05.390Z,17.60
2023-08-15T01:41:40.251Z,17.51
2023-08-15T01:44:12.630Z,17.34
2023-08-15T01:46:39.523Z,17.27
2023-08-15T01:49:06.382Z,17.25
2023-08-15T01:51:33.123Z,17.26
2023-08-15T01:53:59.963Z,17.05
2023-08-15T01:56:26.785Z,17.20
2023-08-15T01:58:53.625Z,17.11
2023-08-15T02:01:20.402Z,16.78
2023-08-15T02:03:47.161Z,16.80
2023-08-15T02:06:13.971Z,16.82
2023-08-15T02:08:40.779Z,16.68
2023-08-15T02:11:07.714Z,16.80
2023-08-15T02:13:35.076Z,16.62
2023-08-15T02:16:02.595Z,16.62
2023-08-15T02:18:33.243Z,16.52
2023-08-15T02:21:00.019Z,16.64
2023-08-15T02:23:27.062Z,16.60
2023-08-15T02:25:53.812Z,16.61
2023-08-15T02:28:20.650Z,16.59
2023-08-15T02:30:47.505Z,16.71
2023-08-15T02:33:14.300Z,16.53
2023-08-15T02:35:42.369Z,16.50
2023-08-15T02:38:09.524Z,16.61
2023-08-15T02:40:36.337Z,16.57
2023-08-15T02:43:03.228Z,16.61
2023-08-15T02:45:30.066Z,16.53
2023-08-15T02:47:56.812Z,16.18
2023-08-15T02:50:23.733Z,16.33
2023-08-15T02:52:50.527Z,16.33
2023-08-15T02:55:17.449Z,16.40
2023-08-15T02:57:44.305Z,16.39
2023-08-15T03:00:11.961Z,16.34
2023-08-15T03:02:41.269Z,16.16
2023-08-15T03:05:08.307Z,16.24
2023-08-15T03:07:35.178Z,16.24
2023-08-15T03:10:02.071Z,16.20
2023-08-15T03:12:30.375Z,16.07
2023-08-15T03:14:59.003Z,16.16
2023-08-15T03:17:25.966Z,16.13
2023-08-15T03:19:54.459Z,16.11
2023-08-15T03:22:21.242Z,16.26
2023-08-15T03:24:48.029Z,16.16
2023-08-15T03:27:14.824Z,16.14
2023-08-15T03:29:41.593Z,15.87
2023-08-15T03:32:08.431Z,15.98
2023-08-15T03:34:35.261Z,15.88
2023-08-15T03:37:02.024Z,16.04
2023-08-15T03:39:28.736Z,15.95
2023-08-15T03:41:55.551Z,15.79
2023-08-15T03:44:22.400Z,15.76
2023-08-15T03:46:49.375Z,15.49
2023-08-15T03:49:16.144Z,15.54
2023-08-15T03:51:46.974Z,15.57
2023-08-15T03:54:14.742Z,15.70
2023-08-15T03:56:41.719Z,15.59
2023-08-15T03:59:08.557Z,15.66
2023-08-15T04:01:35.473Z,15.66
2023-08-15T04:04:02.468Z,15.69
2023-08-15T04:06:29.311Z,15.58
2023-08-15T04:08:56.085Z,15.64
2023-08-15T04:11:22.778Z,15.59
2023-08-15T04:13:49.537Z,15.45
2023-08-15T04:16:16.640Z,15.49
2023-08-15T04:18:43.356Z,15.54
2023-08-15T04:21:11.928Z,15.43
2023-08-15T04:23:38.647Z,15.45
2023-08-15T04:26:05.434Z,15.67
2023-08-15T04:28:32.358Z,15.60
2023-08-15T04:30:59.245Z,15.47
2023-08-15T04:33:25.968Z,15.37
2023-08-15T04:35:52.697Z,15.46
2023-08-15T04:38:19.469Z,15.43
2023-08-15T04:40:46.309Z,15.39
2023-08-15T04:43:13.048Z,15.27
2023-08-15T04:45:44.656Z,15.42
2023-08-15T04:48:12.689Z,15.55
2023-08-15T04:50:39.807Z,15.53
2023-08-15T04:53:07.471Z,15.53
2023-08-15T04:55:34.417Z,15.44
2023-08-15T04:58:01.164Z,15.47
2023-08-15T05:00:27.959Z,15.64
2023-08-15T05:02:54.793Z,15.65
2023-08-15T05:05:21.590Z,15.66
2023-08-15T05:07:48.313Z,15.87
2023-08-15T05:10:15.120Z,16.23
2023-08-15T05:12:41.914Z,16.53
2023-08-15T05:15:09.418Z,16.81
2023-08-15T05:17:36.687Z,16.80
2023-08-15T05:20:04.842Z,17.07
2023-08-15T05:22:32.999Z,17.23
2023-08-15T05:24:59.833Z,17.56
2023-08-15T05:27:26.620Z,17.86
2023-08-15T05:29:53.428Z,17.63
2023-08-15T05:32:20.178Z,18.26
2023-08-15T05:34:46.922Z,18.48
2023-08-15T05:37:13.640Z,18.27
2023-08-15T05:39:40.434Z,18.35
2023-08-15T05:42:07.851Z,18.25
2023-08-15T05:44:34.612Z,18.81
2023-08-15T05:47:01.362Z,19.10
2023-08-15T05:49:28.193Z,19.23
2023-08-15T05:51:55.292Z,19.61
2023-08-15T05:54:22.969Z,19.88
2023-08-15T05:56:49.756Z,19.80
2023-08-15T05:59:16.553Z,20.24
2023-08-15T06:01:43.456Z,20.48
2023-08-15T06:04:10.306Z,20.67
2023-08-15T06:06:37.269Z,20.52
2023-08-15T06:09:04.977Z,20.51
2023-08-15T06:11:31.808Z,20.55
2023-08-15T06:13:58.578Z,20.60
2023-08-15T06:16:25.373Z,21.20
2023-08-15T06:18:52.200Z,21.38
2023-08-15T06:21:18.911Z,21.51
2023-08-15T06:23:45.687Z,21.88
2023-08-15T06:26:12.400Z,21.99
2023-08-15T06:28:39.194Z,22.02
2023-08-15T06:31:05.917Z,21.64
2023-08-15T06:33:32.911Z,21.66
2023-08-15T06:35:59.829Z,22.32
2023-08-15T06:38:26.678Z,21.45
2023-08-15T06:40:53.483Z,21.36
2023-08-15T06:43:20.263Z,21.46
2023-08-15T06:45:47.128Z,22.04
2023-08-15T06:48:13.865Z,22.54
2023-08-15T06:50:41.117Z,22.46
2023-08-15T06:53:07.942Z,21.92
2023-08-15T06:55:34.704Z,22.48
2023-08-15T06:58:02.595Z,22.62
2023-08-15T07:00:29.627Z,22.68
2023-08-15T07:02:56.859Z,22.84
2023-08-15T07:05:23.629Z,22.87
2023-08-15T07:07:50.443Z,23.00
2023-08-15T07:10:17.317Z,23.24
2023-08-15T07:12:45.151Z,23.60
2023-08-15T07:15:14.220Z,23.61
2023-08-15T07:17:41.676Z,24.26
2023-08-15T07:20:10.639Z,24.75
2023-08-15T07:22:37.576Z,24.26
2023-08-15T07:25:04.638Z,24.58
2023-08-15T07:27:31.395Z,25.16
2023-08-15T07:29:58.304Z,24.77
2023-08-15T07:32:25.471Z,25.15
2023-08-15T07:34:52.732Z,25.79
2023-08-15T07:37:19.511Z,25.13
2023-08-15T07:39:46.282Z,26.09
2023-08-15T07:42:13.297Z,26.54
2023-08-15T07:44:40.044Z,26.46
2023-08-15T07:47:06.878Z,26.41
2023-08-15T07:49:33.771Z,26.18
2023-08-15T07:52:05.803Z,25.84
2023-08-15T07:54:32.658Z,25.79
2023-08-15T07:56:59.421Z,26.61
2023-08-15T07:59:26.190Z,26.54
2023-08-15T08:01:53.029Z,26.55
2023-08-15T08:04:22.737Z,26.66
2023-08-15T08:06:50.516Z,26.52
2023-08-15T08:09:17.385Z,26.58
2023-08-15T08:11:45.665Z,26.51
2023-08-15T08:14:12.417Z,26.79
2023-08-15T08:16:39.251Z,26.38
2023-08-15T08:19:06.168Z,26.54
2023-08-15T08:21:34.813Z,26.73
2023-08-15T08:24:01.609Z,26.67
2023-08-15T08:26:30.367Z,25.72
2023-08-15T08:28:57.080Z,26.08
2023-08-15T08:31:23.875Z,26.54
2023-08-15T08:33:50.690Z,26.92
2023-08-15T08:36:17.610Z,27.31
2023-08-15T08:38:44.388Z,26.62
2023-08-15T08:41:11.153Z,27.11
2023-08-15T08:43:38.474Z,27.78
2023-08-15T08:46:05.665Z,27.52
2023-08-15T08:48:33.643Z,27.93
2023-08-15T08:51:00.687Z,27.97
2023-08-15T08:53:27.710Z,27.64
2023-08-15T08:55:54.568Z,27.61
2023-08-15T08:58:22.880Z,27.14
2023-08-15T09:00:51.424Z,26.84
2023-08-15T09:03:19.767Z,26.84
2023-08-15T09:05:46.652Z,27.10
2023-08-15T09:08:13.641Z,27.22
2023-08-15T09:10:40.420Z,27.32
2023-08-15T09:13:07.314Z,28.16
2023-08-15T09:15:35.508Z,28.35
2023-08-15T09:18:06.315Z,28.50
2023-08-15T09:20:33.650Z,28.41
2023-08-15T09:23:01.091Z,27.63
2023-08-15T09:25:28.669Z,27.87
2023-08-15T09:27:55.873Z,28.19
2023-08-15T09:30:23.106Z,27.91
2023-08-15T09:32:50.367Z,27.87
2023-08-15T09:35:19.257Z,28.54
2023-08-15T09:37:50.885Z,28.61
2023-08-15T09:40:19.937Z,28.23
2023-08-15T09:42:47.105Z,28.35
2023-08-15T09:45:14.472Z,28.41
2023-08-15T09:47:41.723Z,28.81
2023-08-15T09:50:10.879Z,29.39
2023-08-15T09:52:40.366Z,29.65
2023-08-15T09:55:11.652Z,29.41
2023-08-15T09:57:48.057Z,29.66
2023-08-15T10:00:18.797Z,29.54
2023-08-15T10:02:54.773Z,29.57
2023-08-15T10:05:22.893Z,30.04
2023-08-15T10:07:50.496Z,29.95
2023-08-15T10:10:18.419Z,30.13
2023-08-15T10:12:46.873Z,30.13
2023-08-15T10:15:14.414Z,29.65
2023-08-15T10:17:41.517Z,29.45
2023-08-15T10:20:14.869Z,29.66
2023-08-15T10:22:41.669Z,29.52
2023-08-15T10:25:24.063Z,29.57
2023-08-15T10:27:53.283Z,29.94
2023-08-15T10:30:35.240Z,29.49
2023-08-15T10:33:12.841Z,29.72
2023-08-15T10:35:55.978Z,29.65
2023-08-15T10:38:25.597Z,29.35
2023-08-15T10:40:53.977Z,29.53
2023-08-15T10:43:25.721Z,29.43
2023-08-15T10:45:57.409Z,29.40
2023-08-15T10:49:00.113Z,29.79
2023-08-15T10:51:38.051Z,29.30
2023-08-15T10:54:13.424Z,29.69
2023-08-15T10:56:42.046Z,30.39
2023-08-15T10:59:16.651Z,30.37
2023-08-15T11:01:47.317Z,29.81
2023-08-15T11:04:18.917Z,29.91
2023-08-15T11:06:50.052Z,30.00
2023-08-15T11:09:17.903Z,30.41
2023-08-15T11:11:48.141Z,30.40
2023-08-15T11:14:19.172Z,29.96
2023-08-15T11:16:47.634Z,30.11
2023-08-15T11:19:21.106Z,30.38
2023-08-15T11:21:49.386Z,30.10
2023-08-15T11:24:16.537Z,30.32
2023-08-15T11:26:43.346Z,30.70
2023-08-15T11:29:12.003Z,30.72
2023-08-15T11:31:39.087Z,30.90
2023-08-15T11:34:06.528Z,31.05
2023-08-15T11:36:33.390Z,31.26
2023-08-15T11:39:04.542Z,31.38
2023-08-15T11:41:34.957Z,30.99
2023-08-15T11:44:02.863Z,31.18
2023-08-15T11:46:36.387Z,31.41
2023-08-15T11:49:22.470Z,30.82
2023-08-15T11:51:49.293Z,31.04
2023-08-15T11:54:16.237Z,30.85
2023-08-15T11:56:53.997Z,31.13
2023-08-15T11:59:21.090Z,31.09
2023-08-15T12:01:49.453Z,31.19
2023-08-15T12:04:19.504Z,31.53
2023-08-15T12:06:46.408Z,31.49
2023-08-15T12:09:13.516Z,31.81
2023-08-15T12:11:40.432Z,31.88
2023-08-15T12:14:07.245Z,31.20
2023-08-15T12:16:34.037Z,31.43
2023-08-15T12:19:00.812Z,31.50
2023-08-15T12:21:27.634Z,31.48
2023-08-15T12:23:54.430Z,31.43
2023-08-15T12:26:21.247Z,31.68
2023-08-15T12:28:47.999Z,31.63
2023-08-15T12:31:14.932Z,31.69
2023-08-15T12:33:46.867Z,32.10
2023-08-15T12:36:16.034Z,31.97
2023-08-15T12:38:43.666Z,32.12
2023-08-15T12:41:10.519Z,31.86
2023-08-15T12:43:37.914Z,31.97
2023-08-15T12:46:05.352Z,31.94
2023-08-15T12:48:32.263Z,32.01
2023-08-15T12:51:00.920Z,32.07
2023-08-15T12:53:27.965Z,31.96
2023-08-15T12:55:54.972Z,31.80
2023-08-15T12:58:21.893Z,32.05
2023-08-15T13:00:50.441Z,32.04
2023-08-15T13:03:19.362Z,31.84
2023-08-15T13:05:47.722Z,32.22
2023-08-15T13:08:17.200Z,32.23
2023-08-15T13:10:44.820Z,32.24
2023-08-15T13:13:11.923Z,32.17
2023-08-15T13:15:39.011Z,32.01
2023-08-15T13:18:06.211Z,32.14
2023-08-15T13:20:33.621Z,32.21
2023-08-15T13:23:00.660Z,32.20
2023-08-15T13:25:27.980Z,32.05
2023-08-15T13:27:54.750Z,32.28
2023-08-15T13:30:21.661Z,32.32
2023-08-15T13:32:48.652Z,32.13
2023-08-15T13:35:15.478Z,32.17
2023-08-15T13:37:43.222Z,32.26
2023-08-15T13:40:11.449Z,32.17
2023-08-15T13:42:40.642Z,32.26
2023-08-15T13:45:09.696Z,32.38
2023-08-15T13:47:39.294Z,32.50
2023-08-15T13:50:07.034Z,32.31
2023-08-15T13:52:34.172Z,32.34
2023-08-15T13:55:01.149Z,32.20
2023-08-15T13:57:28.267Z,32.24
2023-08-15T13:59:55.981Z,32.35
2023-08-15T14:02:22.857Z,32.22
2023-08-15T14:04:49.819Z,32.27
2023-08-15T14:07:16.826Z,32.61
2023-08-15T14:09:43.552Z,32.43
2023-08-15T14:12:10.504Z,32.33
2023-08-15T14:14:38.205Z,32.35
2023-08-15T14:17:07.234Z,32.42
2023-08-15T14:19:34.095Z,32.23
2023-08-15T14:22:00.918Z,32.29
2023-08-15T14:24:27.700Z,32.42
2023-08-15T14:26:54.470Z,32.39
2023-08-15T14:29:21.296Z,32.62
2023-08-15T14:31:48.065Z,32.65
2023-08-15T14:34:15.713Z,32.62
2023-08-15T14:36:42.507Z,32.48
2023-08-15T14:39:09.484Z,32.38
2023-08-15T14:41:36.325Z,32.17
2023-08-15T14:44:03.275Z,32.29
2023-08-15T14:46:30.065Z,32.28
2023-08-15T14:48:57.009Z,32.20
2023-08-15T14:51:23.830Z,32.10
2023-08-15T14:53:50.716Z,32.18
2023-08-15T14:56:18.635Z,31.92
2023-08-15T14:58:46.542Z,31.87
2023-08-15T15:01:13.590Z,31.62
2023-08-15T15:03:40.864Z,31.41
2023-08-15T15:06:07.800Z,31.01
2023-08-15T15:08:34.783Z,30.90
2023-08-15T15:11:04.553Z,30.77
2023-08-15T15:13:31.719Z,30.50
2023-08-15T15:15:58.533Z,30.44
2023-08-15T15:18:25.421Z,30.45
2023-08-15T15:20:52.365Z,30.12
2023-08-15T15:23:19.501Z,30.14
2023-08-15T15:25:46.830Z,29.88
2023-08-15T15:28:13.753Z,29.85
2023-08-15T15:30:41.106Z,29.83
2023-08-15T15:33:08.040Z,29.67
2023-08-15T15:35:34.932Z,29.63
2023-08-15T15:38:01.838Z,29.51
2023-08-15T15:40:28.649Z,29.60
2023-08-15T15:42:55.389Z,29.59
2023-08-15T15:45:22.235Z,29.62
2023-08-15T15:47:49.119Z,29.38
2023-08-15T15:50:21.345Z,29.40
2023-08-15T15:52:48.766Z,29.27
2023-08-15T15:55:20.829Z,29.07
2023-08-15T15:57:47.779Z,29.13
2023-08-15T16:00:17.254Z,29.20
2023-08-15T16:02:44.636Z,28.98
2023-08-15T16:05:12.570Z,29.17
2023-08-15T16:07:39.417Z,29.38
2023-08-15T16:10:07.642Z,29.13
2023-08-15T16:12:34.536Z,28.63
2023-08-15T16:15:01.924Z,28.52
2023-08-15T16:17:29.406Z,28.41
2023-08-15T16:19:56.799Z,28.36
2023-08-15T16:22:24.239Z,28.46
2023-08-15T16:24:51.697Z,28.50
2023-08-15T16:27:18.542Z,28.46
2023-08-15T16:29:45.428Z,28.20
2023-08-15T16:32:14.976Z,27.96
2023-08-15T16:34:43.884Z,27.89
2023-08-15T16:37:10.826Z,27.66
2023-08-15T16:39:37.715Z,27.51
2023-08-15T16:42:04.929Z,27.55
2023-08-15T16:44:31.702Z,27.66
2023-08-15T16:46:58.624Z,27.15
2023-08-15T16:49:25.575Z,27.11
2023-08-15T16:51:52.408Z,27.08
2023-08-15T16:54:19.370Z,26.94
2023-08-15T16:56:46.218Z,26.84
2023-08-15T16:59:13.081Z,26.74
2023-08-15T17:01:40.126Z,26.71
2023-08-15T17:04:07.255Z,26.58
2023-08-15T17:06:34.271Z,26.45
2023-08-15T17:09:01.041Z,26.45
2023-08-15T17:11:27.986Z,26.36
2023-08-15T17:13:54.738Z,26.40
2023-08-15T17:16:21.689Z,26.25
2023-08-15T17:18:48.600Z,26.23
2023-08-15T17:21:15.501Z,26.09
2023-08-15T17:23:43.017Z,25.91
2023-08-15T17:26:09.900Z,25.72
2023-08-15T17:28:36.707Z,25.45
2023-08-15T17:31:03.599Z,25.60
2023-08-15T17:33:30.477Z,25.43
2023-08-15T17:35:57.282Z,25.48
2023-08-15T17:38:24.038Z,25.49
2023-08-15T17:40:50.868Z,25.47
2023-08-15T17:43:17.723Z,25.38
2023-08-15T17:45:44.542Z,25.28
2023-08-15T17:48:11.837Z,25.07
2023-08-15T17:50:38.856Z,25.15
2023-08-15T17:53:05.729Z,25.22
2023-08-15T17:55:32.586Z,25.04
2023-08-15T17:57:59.434Z,24.95
2023-08-15T18:00:27.848Z,24.78
2023-08-15T18:02:55.099Z,24.72
2023-08-15T18:05:22.259Z,24.81
2023-08-15T18:07:49.064Z,24.67
2023-08-15T18:10:16.380Z,24.59
2023-08-15T18:12:43.809Z,24.58
2023-08-15T18:15:11.721Z,24.45
2023-08-15T18:17:38.661Z,24.41
2023-08-15T18:20:06.065Z,24.32
2023-08-15T18:22:33.046Z,24.24
2023-08-15T18:24:59.831Z,24.34
2023-08-15T18:27:26.663Z,24.38
2023-08-15T18:29:53.940Z,24.92
2023-08-15T18:32:20.842Z,25.01
2023-08-15T18:34:47.896Z,25.09
2023-08-15T18:37:14.729Z,25.09
2023-08-15T18:39:41.540Z,25.09
2023-08-15T18:42:08.763Z,24.95
2023-08-15T18:44:35.610Z,24.97
2023-08-15T18:47:03.649Z,24.99
2023-08-15T18:49:31.468Z,24.98
2023-08-15T18:51:58.312Z,24.90
2023-08-15T18:54:25.625Z,24.93
2023-08-15T18:56:52.483Z,24.76
2023-08-15T18:59:24.147Z,24.73
2023-08-15T19:01:51.460Z,24.57
2023-08-15T19:04:18.375Z,24.67
2023-08-15T19:06:45.275Z,24.55
2023-08-15T19:09:12.104Z,24.44
2023-08-15T19:11:39.036Z,24.48
2023-08-15T19:14:05.962Z,24.44
2023-08-15T19:16:32.804Z,24.45
2023-08-15T19:19:04.090Z,24.49
2023-08-15T19:21:31.393Z,24.41
2023-08-15T19:23:58.235Z,24.33
2023-08-15T19:26:25.140Z,24.25
2023-08-15T19:28:52.521Z,24.41
2023-08-15T19:31:19.449Z,24.21
2023-08-15T19:33:46.388Z,24.19
2023-08-15T19:36:13.365Z,24.04
2023-08-15T19:38:40.208Z,24.10
2023-08-15T19:41:07.604Z,24.06
2023-08-15T19:43:34.621Z,23.91
2023-08-15T19:46:02.275Z,23.91
2023-08-15T19:48:29.041Z,23.83
2023-08-15T19:50:55.926Z,23.81
2023-08-15T19:53:22.738Z,23.88
2023-08-15T19:55:49.521Z,23.70
2023-08-15T19:58:19.051Z,23.67
2023-08-15T20:00:46.151Z,23.70
2023-08-15T20:03:16.078Z,23.70
2023-08-15T20:05:42.935Z,23.55
2023-08-15T20:08:10.313Z,23.58
2023-08-15T20:10:37.159Z,23.45
2023-08-15T20:13:04.302Z,23.45
2023-08-15T20:15:32.147Z,23.48
2023-08-15T20:17:59.260Z,23.51
2023-08-15T20:20:26.323Z,23.55
2023-08-15T20:22:55.420Z,23.46
2023-08-15T20:25:22.480Z,23.41
2023-08-15T20:27:49.464Z,23.45
2023-08-15T20:30:16.297Z,23.28
2023-08-15T20:32:43.157Z,23.24
2023-08-15T20:35:11.276Z,23.23
2023-08-15T20:37:38.302Z,23.32
2023-08-15T20:40:10.429Z,23.33
2023-08-15T20:42:37.831Z,23.35
2023-08-15T20:45:05.894Z,23.30
2023-08-15T20:47:32.740Z,23.29
2023-08-15T20:50:00.772Z,23.14
2023-08-15T20:52:27.522Z,23.05
2023-08-15T20:54:54.389Z,22.99
2023-08-15T20:57:21.941Z,23.00
2023-08-15T20:59:48.834Z,23.08
2023-08-15T21:02:15.773Z,23.08
2023-08-15T21:04:42.732Z,23.18
2023-08-15T21:07:09.740Z,23.16
2023-08-15T21:09:36.960Z,23.20
2023-08-15T21:12:04.004Z,23.12
2023-08-15T21:14:30.916Z,23.02
2023-08-15T21:16:58.129Z,22.92
2023-08-15T21:19:24.905Z,22.86
2023-08-15T21:21:51.792Z,22.89
2023-08-15T21:24:18.925Z,22.57
2023-08-15T21:26:46.002Z,22.60
2023-08-15T21:29:12.818Z,22.49
2023-08-15T21:31:39.724Z,22.57
2023-08-15T21:34:06.559Z,22.59
2023-08-15T21:36:33.382Z,22.70
2023-08-15T21:39:00.712Z,22.65
2023-08-15T21:41:27.479Z,22.63
2023-08-15T21:43:54.384Z,22.59
2023-08-15T21:46:21.164Z,22.50
2023-08-15T21:48:47.917Z,22.40
2023-08-15T21:51:14.685Z,22.34
2023-08-15T21:53:41.525Z,22.25
2023-08-15T21:56:08.346Z,21.96
2023-08-15T21:58:35.121Z,21.88
2023-08-15T22:01:02.000Z,21.91
2023-08-15T22:03:28.755Z,21.83
2023-08-15T22:05:55.683Z,21.69
2023-08-15T22:08:22.406Z,21.65
2023-08-15T22:10:49.269Z,21.60
2023-08-15T22:13:16.107Z,21.50
2023-08-15T22:15:44.197Z,21.38
2023-08-15T22:18:19.852Z,21.39
2023-08-15T22:20:47.731Z,21.33
2023-08-15T22:23:14.655Z,21.26
2023-08-15T22:25:46.284Z,21.24
2023-08-15T22:28:13.325Z,21.30
2023-08-15T22:30:40.581Z,21.19
2023-08-15T22:33:07.340Z,21.21
2023-08-15T22:35:42.275Z,21.18
2023-08-15T22:38:09.287Z,21.09
2023-08-15T22:40:36.443Z,21.05
2023-08-15T22:43:04.797Z,20.89
2023-08-15T22:45:31.990Z,20.75
2023-08-15T22:47:58.973Z,20.72
2023-08-15T22:50:25.965Z,20.85
2023-08-15T22:52:56.381Z,20.75
2023-08-15T22:55:23.216Z,20.78
2023-08-15T22:57:50.044Z,20.69
2023-08-15T23:00:16.925Z,20.81
2023-08-15T23:02:43.885Z,20.70
2023-08-15T23:05:10.896Z,20.77
2023-08-15T23:07:37.717Z,20.44
2023-08-15T23:10:06.061Z,20.50
2023-08-15T23:12:32.962Z,20.51
2023-08-15T23:14:59.874Z,20.36
2023-08-15T23:17:26.698Z,20.11
2023-08-15T23:19:53.574Z,20.14
2023-08-15T23:22:20.410Z,20.20
2023-08-15T23:24:47.204Z,20.06
2023-08-15T23:27:14.123Z,20.14
2023-08-15T23:29:40.972Z,20.17
2023-08-15T23:32:08.146Z,20.02
2023-08-15T23:34:35.021Z,20.05
2023-08-15T23:37:01.873Z,19.89
2023-08-15T23:39:28.774Z,19.84
2023-08-15T23:41:55.624Z,19.91
2023-08-15T23:44:22.412Z,19.93
2023-08-15T23:46:49.401Z,19.86
2023-08-15T23:49:16.265Z,19.68
2023-08-15T23:51:43.107Z,19.56
2023-08-15T23:54:10.004Z,19.59
2023-08-15T23:56:37.005Z,19.77
2023-08-15T23:59:04.274Z,19.64
